Etusivu
METAR-TAF:

METAR-TAF

Lentoasemat :

Mosjøen, Norja

Leveyspiiri: 65-48N, Pituuspiiri: 013-08E, korkeus merenpinnasta: 70 m

Tämänhetkinen sää

Tämä raportti tehtiin 10 tuntia ja 45 minuuttia sitten, kello 14.20 UTC
Tuuli 10 kn pohjoisen/luoteesta, vaihdellen lännen ja pohjoisen välillä
Lämpötila 22°C
Kosteus 60%
Ilmanpaine 1006 hPa
Näkyvyys 10 km tai enemmän
Muutamia pilviä 4000 ft:n korkeudessa
Hajanaisia pilviä 4800 ft:n korkeudessa

METAR: ENMS 211420Z 33010KT 270V010 9999 FEW040 SCT048 22/14 Q1006 RMK WIND 412FT 28013KT

Aika: 03:05 (01:05 UTC)


TAF: puuttuu

Säähavainnot ja -ennusteet yli 4000 lentoasemalta (METAR- ja TAF-raportit).

Käytössä olevat sääasemat on merkitty karttaan keltaisilla ja punaisilla pisteillä.

Aseta hiiri pisteen päälle nähdäksesi sääaseman nimen.

Klikkaa sitten nähdäksesi säähavainnot ja -ennusteet.

Kartan vaihtaminen: klikkaa mustalla rastilla varustettuja vihreitä pisteitä, niin voit zoomata sisään; viivalla varustettua vihreää pistettä, niin voit zoomata ulos tai vihreitä nuolia, niin pääset viereisille kartoille.


METAR-TAF: